Página principal
METAR-TAF:

METAR-TAF

Aeroportos :

Aeroporto Internacional de Bonriki

Tarawa, Kiribati

latitude: 01-21N, longitude: 172-55E, altura: 2 m

Observação actual do tempo

O boletim foi feito há 1 hora e 51 minutos, às 02:00 UTC
Vento 5 kt de norte
Temperatura 32°C
Humidade 71%
Pressão 1008 hPa
Visibilidade 10 km ou mais
Poucas nuvensa uma altura de 2000 ft

METAR: NGTA 230200Z 35005KT 9999 FEW020 32/26 Q1008

Hora: 17:51 (03:51 UTC)

Previsão

O boletim foi feito há 4 horas e 26 minutos, às 23:25 UTC
Previsão válida de 23 às 00 UTC a 23 às 24 UTC
Vento 8 kt de nor-nordeste
Visibilidade 10 km ou mais
Poucas nuvensa uma altura de 2000 ft

TAF: NGTA 222325Z 2300/2324 03008KT 9999 FEW020

Observações e previsões do tempo de mais de 4000 aeroportos (mensagens METAR e TAF).

As estações disponíveis são os pontos amarelos e vermelhos sobre o mapa.

Mova o rato sobre o mapa para ver o nome da estação.

Depois clique no ponto para visualizar as observações e previsões meteorológicas.

Para alterar o mapa : clique nos botões verdes com uma cruz preta para aumentar o zoom; no botão verde com uma pitada de zoom; ou nas setas verdes para mapas adjacentes.


METAR-TAF: